Time;durP1;ratioP1;P1;durP2;ratioP2;P2;SDS_P1;SDS_P2;PMS_P1;PMS_P2;Temp;Humidity;BMP_temperature;BMP_pressure;BME280_temperature;BME280_humidity;BME280_pressure;Samples;Min_cycle;Max_cycle;Signal;HPM_P1;HPM_P2
2022/03/23 00:01:34;;;;;;;39.47;27.45;;;;;;;9.51;49.20;101927.50;4163635;28;20423;-58
2022/03/23 00:03:37;;;;;;;35.78;27.33;;;;;;;9.38;49.58;101932.13;4162813;28;20038;-58
2022/03/23 00:05:41;;;;;;;35.47;25.98;;;;;;;9.38;49.38;101926.94;4160603;28;20069;-58
2022/03/23 00:07:45;;;;;;;34.33;25.55;;;;;;;9.38;49.39;101926.94;4162499;28;20426;-57
2022/03/23 00:09:48;;;;;;;36.72;24.77;;;;;;;9.38;49.72;101926.06;4163809;28;20471;-57
2022/03/23 00:11:59;;;;;;;37.03;27.08;;;;;;;9.39;49.75;101927.84;4164011;28;20055;-57
2022/03/23 00:14:05;;;;;;;37.78;26.33;;;;;;;9.40;49.73;101924.41;4155764;28;20088;-57
2022/03/23 00:16:08;;;;;;;35.00;27.10;;;;;;;9.35;50.39;101926.81;4150957;28;20038;-57
2022/03/23 00:18:10;;;;;;;37.60;27.50;;;;;;;9.31;50.22;101922.31;4163903;28;20450;-57
2022/03/23 00:20:14;;;;;;;36.92;26.50;;;;;;;9.30;50.39;101928.34;4160159;28;20127;-57
2022/03/23 00:22:18;;;;;;;39.60;27.10;;;;;;;9.25;50.68;101929.84;4136400;28;20058;-57
2022/03/23 00:24:22;;;;;;;34.25;26.33;;;;;;;9.20;50.72;101923.53;4161413;28;20284;-57
2022/03/23 00:26:25;;;;;;;38.83;27.13;;;;;;;9.15;50.45;101925.94;4161141;28;20041;-58
2022/03/23 00:28:28;;;;;;;37.67;28.70;;;;;;;9.09;50.40;101934.34;4162414;28;20041;-57
2022/03/23 00:30:33;;;;;;;36.53;26.33;;;;;;;9.07;50.52;101922.16;4146198;28;20056;-57
2022/03/23 00:32:57;;;;;;;39.55;28.00;;;;;;;9.02;50.83;101924.56;4130564;28;20265;-57
2022/03/23 00:35:01;;;;;;;35.65;25.83;;;;;;;9.05;50.97;101929.88;4130279;28;20058;-58
2022/03/23 00:37:04;;;;;;;40.40;28.25;;;;;;;9.06;51.31;101925.56;4159162;28;20535;-58
2022/03/23 00:39:07;;;;;;;37.55;27.17;;;;;;;9.02;51.92;101932.34;4163644;28;20064;-58
2022/03/23 00:41:12;;;;;;;33.35;26.95;;;;;;;8.97;51.89;101933.81;4145671;28;20042;-58
2022/03/23 00:43:15;;;;;;;38.65;28.58;;;;;;;8.90;52.23;101934.38;4130993;28;20046;-58
2022/03/23 00:45:18;;;;;;;35.17;27.20;;;;;;;8.88;52.19;101938.59;4163513;28;20079;-58
2022/03/23 00:47:21;;;;;;;35.78;26.13;;;;;;;8.87;52.14;101931.63;4143260;28;20526;-58
2022/03/23 00:49:24;;;;;;;40.50;28.95;;;;;;;8.85;53.30;101928.97;4163799;28;20056;-58
2022/03/23 00:51:26;;;;;;;36.63;28.15;;;;;;;8.86;53.54;101932.44;4152784;28;20049;-58
2022/03/23 00:53:29;;;;;;;39.05;28.75;;;;;;;8.81;54.53;101932.25;4161710;28;20037;-58
2022/03/23 00:55:32;;;;;;;39.13;29.77;;;;;;;8.73;54.56;101934.50;4142519;28;20133;-58
2022/03/23 00:57:36;;;;;;;39.53;29.10;;;;;;;8.72;54.52;101932.72;4144270;28;20583;-58
2022/03/23 00:59:41;;;;;;;34.78;27.83;;;;;;;8.66;55.04;101936.72;4145898;28;20046;-58
2022/03/23 01:01:45;;;;;;;38.15;29.58;;;;;;;8.62;55.84;101929.66;4153621;28;20092;-58
2022/03/23 01:03:48;;;;;;;37.10;27.13;;;;;;;8.60;55.23;101936.44;4147204;28;20042;-58
2022/03/23 01:05:51;;;;;;;36.53;28.60;;;;;;;8.63;55.39;101934.91;4160127;28;20399;-57
2022/03/23 01:07:54;;;;;;;40.25;29.55;;;;;;;8.65;55.40;101940.16;4158717;28;20041;-58
2022/03/23 01:09:57;;;;;;;34.85;28.38;;;;;;;8.63;55.47;101929.72;4145846;28;20096;-58
2022/03/23 01:11:59;;;;;;;37.47;28.90;;;;;;;8.59;56.12;101932.97;4158567;28;20034;-58
2022/03/23 01:14:04;;;;;;;37.35;27.33;;;;;;;8.54;56.53;101937.03;4158283;28;20073;-58
2022/03/23 01:16:07;;;;;;;;;;;;;;;8.31;57.51;101931.66;4161376;28;20315;-58
2022/03/23 01:18:10;;;;;;;39.90;28.20;;;;;;;8.37;56.48;101929.34;4142428;28;20011;-58
2022/03/23 01:20:15;;;;;;;35.97;28.23;;;;;;;8.33;57.30;101937.78;4138964;28;20050;-58
2022/03/23 01:22:18;;;;;;;45.92;28.70;;;;;;;8.29;57.58;101934.97;4139369;28;20050;-58
2022/03/23 01:24:21;;;;;;;39.00;28.25;;;;;;;8.19;58.47;101938.81;4136140;28;20050;-58
2022/03/23 01:26:24;;;;;;;38.38;27.45;;;;;;;8.16;58.66;101933.50;4162847;28;20056;-57
2022/03/23 01:28:27;;;;;;;38.83;30.33;;;;;;;8.17;58.55;101930.09;4140553;28;20058;-58
2022/03/23 01:30:31;;;;;;;35.10;28.60;;;;;;;8.20;58.10;101925.06;4147638;28;20121;-58
2022/03/23 01:32:35;;;;;;;33.58;27.35;;;;;;;8.16;58.70;101928.31;4142011;28;20049;-58
2022/03/23 01:34:38;;;;;;;37.88;28.90;;;;;;;8.20;58.04;101936.31;4155919;28;20443;-58
2022/03/23 01:36:41;;;;;;;40.60;28.83;;;;;;;8.20;58.48;101935.44;4128997;28;20050;-58
2022/03/23 01:38:44;;;;;;;44.22;30.42;;;;;;;8.19;58.65;101929.38;4140139;28;20137;-58
2022/03/23 01:40:48;;;;;;;36.90;27.42;;;;;;;8.16;58.34;101930.91;4155113;28;20100;-58
2022/03/23 01:42:52;;;;;;;39.00;28.45;;;;;;;8.14;58.41;101928.25;4140278;28;20049;-58
2022/03/23 01:44:55;;;;;;;37.33;26.33;;;;;;;8.12;59.06;101927.31;4144783;28;20046;-58
2022/03/23 01:47:03;;;;;;;39.67;30.33;;;;;;;8.10;59.23;101928.91;4149377;28;20042;-58
2022/03/23 01:49:06;;;;;;;36.72;29.63;;;;;;;8.11;58.72;101930.69;4153788;28;20038;-58
2022/03/23 01:51:10;;;;;;;43.40;29.83;;;;;;;8.12;58.56;101931.56;4143207;28;20560;-58
2022/03/23 01:53:13;;;;;;;40.50;30.60;;;;;;;8.08;58.96;101929.69;4145938;28;20053;-58
2022/03/23 01:55:17;;;;;;;39.85;29.70;;;;;;;8.06;58.48;101932.19;4141646;28;20042;-57
2022/03/23 01:57:21;;;;;;;40.78;30.42;;;;;;;8.04;58.64;101929.53;4145209;28;20052;-58
2022/03/23 01:59:24;;;;;;;37.65;27.75;;;;;;;7.99;58.64;101931.00;4133187;28;20137;-58
2022/03/23 02:01:28;;;;;;;38.72;28.70;;;;;;;7.88;59.48;101934.75;4129920;28;20532;-58
2022/03/23 02:03:34;;;;;;;;;;;;;;;7.68;60.47;101929.50;4136092;28;20046;-58
2022/03/23 02:05:37;;;;;;;41.30;31.65;;;;;;;7.73;59.79;101928.84;4138940;28;19922;-58
2022/03/23 02:07:40;;;;;;;42.85;29.63;;;;;;;7.79;59.30;101926.56;4144985;28;20053;-59
2022/03/23 02:09:43;;;;;;;40.13;28.95;;;;;;;7.79;59.24;101929.16;4139835;28;20060;-59
2022/03/23 02:11:50;;;;;;;34.42;27.65;;;;;;;7.78;59.66;101935.13;4138155;28;20054;-58
2022/03/23 02:13:53;;;;;;;41.05;29.00;;;;;;;7.77;59.28;101928.16;4132529;28;20057;-59
2022/03/23 02:15:57;;;;;;;38.67;28.85;;;;;;;7.76;59.07;101926.41;4145661;28;20553;-59
2022/03/23 02:18:03;;;;;;;39.70;30.60;;;;;;;7.75;59.36;101927.22;4143943;28;20503;-59
2022/03/23 02:20:09;;;;;;;39.35;30.08;;;;;;;7.78;59.19;101924.78;4130848;28;20133;-59
2022/03/23 02:22:15;;;;;;;39.60;30.02;;;;;;;7.79;59.21;101927.44;4154270;28;20029;-58
2022/03/23 02:24:22;;;;;;;38.67;28.38;;;;;;;7.78;59.21;101922.19;4138235;28;20042;-59
2022/03/23 02:26:26;;;;;;;40.70;30.08;;;;;;;7.78;59.64;101929.94;4145470;28;20535;-59
2022/03/23 02:28:29;;;;;;;37.88;29.30;;;;;;;7.79;59.62;101929.16;4162804;28;20442;-59
2022/03/23 02:30:33;;;;;;;38.13;29.70;;;;;;;7.74;59.20;101933.19;4155289;28;20046;-59
2022/03/23 02:32:36;;;;;;;37.80;27.88;;;;;;;7.69;59.71;101926.13;4146763;28;20073;-59
2022/03/23 02:34:39;;;;;;;41.85;30.30;;;;;;;7.64;59.65;101927.56;4157417;28;20454;-59
2022/03/23 02:36:42;;;;;;;40.60;31.00;;;;;;;7.61;60.04;101924.81;4158219;28;20049;-59
2022/03/23 02:38:46;;;;;;;41.53;31.83;;;;;;;7.59;60.78;101934.19;4159939;28;20095;-59
2022/03/23 02:40:49;;;;;;;41.63;31.80;;;;;;;7.55;60.56;101926.22;4163967;28;20100;-59
2022/03/23 02:42:51;;;;;;;43.25;31.48;;;;;;;7.49;61.17;101931.97;4149002;28;20134;-59
2022/03/23 02:44:54;;;;;;;37.28;28.30;;;;;;;7.49;61.02;101929.38;4155980;28;20037;-58
2022/03/23 02:46:57;;;;;;;39.80;31.52;;;;;;;7.49;61.58;101929.38;4159561;28;20077;-59
2022/03/23 02:49:00;;;;;;;38.65;30.55;;;;;;;7.45;61.46;101933.50;4161581;28;20039;-59
2022/03/23 02:51:03;;;;;;;42.03;30.20;;;;;;;7.46;61.79;101931.81;4158085;28;20041;-59
2022/03/23 03:03:01;;;;;;;44.75;31.00;;;;;;;7.26;62.03;101934.28;4148258;28;20038;-59
2022/03/23 03:05:04;;;;;;;39.85;30.02;;;;;;;7.27;62.10;101930.91;4160679;28;20084;-59
2022/03/23 03:07:07;;;;;;;41.35;29.60;;;;;;;7.28;62.12;101935.22;4165413;28;20049;-59
2022/03/23 03:09:09;;;;;;;36.72;28.48;;;;;;;7.30;62.24;101940.47;4164055;28;20060;-59
2022/03/23 03:11:13;;;;;;;41.17;30.58;;;;;;;7.25;61.99;101949.72;4151784;28;20129;-59
2022/03/23 03:13:16;;;;;;;38.28;27.92;;;;;;;7.19;61.95;101947.69;4148334;28;20104;-59
2022/03/23 03:15:20;;;;;;;46.83;30.27;;;;;;;7.15;61.86;101949.25;4162583;28;20037;-59
2022/03/23 03:17:23;;;;;;;43.60;31.70;;;;;;;7.16;61.63;101952.72;4165170;28;20041;-59
2022/03/23 03:19:26;;;;;;;41.55;32.13;;;;;;;7.16;61.73;101950.13;4154276;28;20103;-59
2022/03/23 03:21:28;;;;;;;48.05;32.83;;;;;;;7.16;61.98;101952.72;4145492;28;20049;-59
2022/03/23 03:23:33;;;;;;;40.92;31.95;;;;;;;7.14;62.35;101947.47;4158598;28;20046;-58
2022/03/23 03:25:35;;;;;;;42.30;31.50;;;;;;;7.12;62.74;101946.47;4154435;28;20038;-58
2022/03/23 03:27:40;;;;;;;38.47;28.95;;;;;;;7.12;62.70;101951.66;4162263;28;20103;-58
2022/03/23 03:29:43;;;;;;;;;;;;;;;6.89;63.46;101950.47;4134901;28;20054;-59
2022/03/23 03:31:45;;;;;;;40.25;29.92;;;;;;;6.95;63.40;101955.97;4161655;28;19921;-59
2022/03/23 03:33:48;;;;;;;41.42;30.80;;;;;;;7.01;62.99;101957.06;4155203;28;20050;-59
2022/03/23 03:35:51;;;;;;;43.47;31.85;;;;;;;7.04;62.59;101965.00;4164571;28;20073;-59
2022/03/23 03:37:54;;;;;;;38.53;29.08;;;;;;;7.02;63.30;101958.84;4156069;28;20096;-59
2022/03/23 03:40:01;;;;;;;41.55;29.10;;;;;;;6.94;63.07;101961.91;4163531;28;20052;-59
2022/03/23 03:42:04;;;;;;;39.85;28.02;;;;;;;6.89;62.63;101965.06;4161401;28;20072;-59
2022/03/23 03:44:09;;;;;;;41.40;31.27;;;;;;;6.96;62.54;101965.47;4164241;28;20103;-59
2022/03/23 03:46:12;;;;;;;53.75;33.38;;;;;;;6.92;62.84;101968.72;4164247;28;20091;-59
2022/03/23 03:48:15;;;;;;;41.28;32.45;;;;;;;6.91;62.92;101976.41;4163219;28;20513;-59
2022/03/23 03:50:18;;;;;;;44.47;30.65;;;;;;;6.87;62.98;101969.28;4156022;28;20456;-59
2022/03/23 03:52:21;;;;;;;41.30;29.20;;;;;;;6.85;63.44;101971.78;4157454;28;20507;-59
2022/03/23 03:54:24;;;;;;;39.10;28.17;;;;;;;6.86;63.11;101976.13;4163637;28;20499;-59
2022/03/23 03:56:26;;;;;;;36.17;28.10;;;;;;;6.85;62.74;101976.97;4164085;28;20100;-59
2022/03/23 03:58:29;;;;;;;42.67;31.23;;;;;;;6.84;63.14;101980.34;4160534;28;20053;-58
2022/03/23 04:00:34;;;;;;;41.67;31.45;;;;;;;6.80;63.85;101980.97;4148815;28;20120;-59
2022/03/23 04:02:37;;;;;;;;;;;;;;;6.63;64.05;101988.69;4156288;28;20502;-59
2022/03/23 04:04:40;;;;;;;46.20;32.20;;;;;;;6.66;64.12;101980.25;4155920;28;20020;-59
2022/03/23 04:06:43;;;;;;;41.63;32.15;;;;;;;6.67;64.31;101975.94;4156796;28;20046;-59
2022/03/23 04:08:46;;;;;;;39.17;28.85;;;;;;;6.66;64.51;101984.50;4149759;28;20451;-59
2022/03/23 04:10:49;;;;;;;42.67;32.35;;;;;;;6.59;64.43;101989.34;4141529;28;20581;-59
2022/03/23 04:12:52;;;;;;;43.10;29.38;;;;;;;6.49;65.05;101987.03;4163182;28;20556;-59
2022/03/23 04:14:55;;;;;;;42.63;31.08;;;;;;;6.43;65.03;101987.59;4161821;28;20033;-59
2022/03/23 04:16:59;;;;;;;43.53;33.03;;;;;;;6.47;65.23;101983.50;4155080;28;20096;-59
2022/03/23 04:19:03;;;;;;;36.33;29.70;;;;;;;6.50;65.31;101981.09;4136551;28;20085;-58
2022/03/23 04:21:06;;;;;;;44.83;33.58;;;;;;;6.50;65.41;101982.75;4153903;28;20087;-59
2022/03/23 04:23:08;;;;;;;40.88;31.63;;;;;;;6.49;65.10;101991.34;4157926;28;20069;-59
2022/03/23 04:25:13;;;;;;;46.00;33.85;;;;;;;6.51;65.03;101990.59;4154947;28;20403;-59
2022/03/23 04:27:16;;;;;;;;;;;;;;;6.33;66.24;101997.34;4148641;28;20038;-59
2022/03/23 04:29:19;;;;;;;41.05;30.75;;;;;;;6.33;65.75;101992.16;4149418;28;19976;-59
2022/03/23 04:31:21;;;;;;;35.95;29.60;;;;;;;6.34;65.67;101996.50;4152470;28;20099;-59
2022/03/23 04:33:26;;;;;;;43.30;32.17;;;;;;;6.35;65.47;101998.31;4141069;28;20042;-58
2022/03/23 04:35:29;;;;;;;41.40;29.88;;;;;;;6.31;65.60;102001.50;4148151;28;20049;-58
2022/03/23 04:37:32;;;;;;;42.83;31.45;;;;;;;6.36;65.53;102002.66;4148134;28;20046;-59
2022/03/23 04:39:34;;;;;;;44.92;32.53;;;;;;;6.37;65.26;101995.00;4159371;28;20057;-58
2022/03/23 04:41:37;;;;;;;44.25;31.85;;;;;;;6.34;65.08;101997.44;4155977;28;20080;-59
2022/03/23 04:43:41;;;;;;;36.50;27.98;;;;;;;6.34;65.04;102001.69;4154927;28;20049;-59
2022/03/23 04:45:43;;;;;;;41.75;30.90;;;;;;;6.33;64.81;102005.09;4163295;28;20064;-59
2022/03/23 04:47:46;;;;;;;41.58;31.05;;;;;;;6.32;65.08;102006.75;4161215;28;20041;-59
2022/03/23 04:49:51;;;;;;;41.73;31.30;;;;;;;6.31;65.10;101998.94;4145861;28;20459;-59
2022/03/23 04:51:54;;;;;;;39.35;28.95;;;;;;;6.29;65.09;102009.16;4163676;28;20442;-59
2022/03/23 04:53:57;;;;;;;39.30;27.98;;;;;;;6.26;65.05;102014.16;4161935;28;20048;-58
2022/03/23 04:56:00;;;;;;;41.88;29.45;;;;;;;6.21;65.44;102010.44;4161958;28;20503;-58
2022/03/23 04:58:02;;;;;;;44.47;31.48;;;;;;;6.20;65.58;102004.38;4157919;28;20454;-58
2022/03/23 05:00:13;;;;;;;40.28;31.88;;;;;;;6.19;65.50;102012.03;4163223;28;20045;-58
2022/03/23 05:02:19;;;;;;;40.67;30.95;;;;;;;6.12;65.35;102015.97;4147450;28;20088;-58
2022/03/23 05:04:22;;;;;;;41.95;29.98;;;;;;;6.13;65.38;102011.69;4153383;28;20053;-58
2022/03/23 05:06:26;;;;;;;45.03;27.92;;;;;;;6.11;65.21;102016.78;4162009;28;20046;-58
2022/03/23 05:08:29;;;;;;;40.42;31.10;;;;;;;6.10;65.49;102022.72;4151476;28;20046;-58
2022/03/23 05:10:32;;;;;;;38.70;30.08;;;;;;;6.14;65.29;102013.47;4159473;28;20041;-58
2022/03/23 05:12:35;;;;;;;40.90;31.77;;;;;;;6.12;65.03;102010.81;4164914;28;20083;-58
2022/03/23 05:14:38;;;;;;;41.55;29.38;;;;;;;6.12;65.07;102018.56;4155325;28;20049;-57
2022/03/23 05:16:41;;;;;;;38.65;29.33;;;;;;;6.10;65.08;102022.72;4153770;28;20515;-57
2022/03/23 05:18:44;;;;;;;42.95;31.30;;;;;;;6.09;64.89;102023.56;4158278;28;20458;-58
2022/03/23 05:20:47;;;;;;;40.20;28.65;;;;;;;6.05;64.97;102024.16;4163385;28;20057;-58
2022/03/23 05:22:53;;;;;;;44.63;30.13;;;;;;;6.04;65.00;102028.41;4159222;28;20434;-58
2022/03/23 05:24:56;;;;;;;46.78;30.50;;;;;;;6.05;64.89;102031.91;4150976;28;20048;-58
2022/03/23 05:26:59;;;;;;;42.35;31.42;;;;;;;6.01;64.98;102029.94;4160104;28;21096;-58
2022/03/23 05:29:02;;;;;;;38.50;29.38;;;;;;;5.93;64.83;102030.34;4152257;28;20046;-57
2022/03/23 05:31:05;;;;;;;41.75;30.10;;;;;;;5.83;65.69;102037.47;4161742;28;20041;-56
2022/03/23 05:33:08;;;;;;;46.53;31.85;;;;;;;5.80;65.25;102035.59;4137505;28;20054;-57
2022/03/23 05:35:12;;;;;;;40.35;29.50;;;;;;;5.73;65.72;102041.19;4159809;28;20042;-58
2022/03/23 05:37:16;;;;;;;38.25;28.65;;;;;;;5.72;65.91;102037.75;4153030;28;20033;-57
2022/03/23 05:39:21;;;;;;;42.92;31.70;;;;;;;5.73;65.72;102041.19;4154809;28;20450;-58
2022/03/23 05:41:24;;;;;;;39.88;30.30;;;;;;;5.78;65.66;102039.75;4160901;28;20045;-57
2022/03/23 05:43:26;;;;;;;43.60;32.20;;;;;;;5.83;65.40;102038.38;4149673;28;20500;-57
2022/03/23 05:45:29;;;;;;;43.95;32.78;;;;;;;5.83;65.34;102037.47;4157190;28;20046;-58
2022/03/23 05:47:32;;;;;;;41.08;30.63;;;;;;;5.75;65.46;102044.75;4156099;28;20037;-58
2022/03/23 05:49:35;;;;;;;41.25;28.30;;;;;;;5.67;65.62;102040.84;4163301;28;20091;-58
2022/03/23 05:51:37;;;;;;;38.22;27.92;;;;;;;5.70;65.47;102041.91;4160984;28;20103;-58
2022/03/23 05:53:40;;;;;;;44.03;28.67;;;;;;;5.72;65.62;102044.56;4153025;28;20034;-58
2022/03/23 05:55:44;;;;;;;43.90;31.55;;;;;;;5.68;65.84;102037.44;4145689;28;20578;-58
2022/03/23 05:57:47;;;;;;;42.45;30.60;;;;;;;5.73;65.60;102046.38;4156069;28;20042;-58
2022/03/23 05:59:50;;;;;;;37.75;28.90;;;;;;;5.80;65.63;102045.94;4158747;28;20048;-58
2022/03/23 06:01:52;;;;;;;43.83;28.98;;;;;;;5.89;65.22;102049.03;4162852;28;20050;-58
2022/03/23 06:03:55;;;;;;;43.40;29.85;;;;;;;5.84;65.30;102052.16;4156910;28;20038;-58
2022/03/23 06:05:58;;;;;;;39.70;29.60;;;;;;;5.88;65.57;102055.00;4163277;28;20450;-58
2022/03/23 06:08:01;;;;;;;43.67;32.42;;;;;;;5.95;65.42;102064.88;4147127;28;20053;-58
2022/03/23 06:10:07;;;;;;;45.40;30.95;;;;;;;5.92;65.57;102056.97;4154207;28;20468;-57
2022/03/23 06:12:12;;;;;;;45.70;31.50;;;;;;;5.96;65.91;102058.06;4166275;28;20041;-57
2022/03/23 06:14:15;;;;;;;38.05;28.77;;;;;;;5.93;65.96;102061.34;4161135;28;20049;-58
2022/03/23 06:16:18;;;;;;;39.72;27.58;;;;;;;5.94;66.29;102070.88;4163501;28;20045;-58
2022/03/23 06:18:20;;;;;;;44.22;30.02;;;;;;;5.99;66.41;102073.75;4162451;28;20049;-58
2022/03/23 06:20:23;;;;;;;42.58;29.80;;;;;;;6.01;66.62;102068.66;4157440;28;20049;-58
2022/03/23 06:22:27;;;;;;;43.65;28.80;;;;;;;6.07;66.46;102071.59;4160771;28;20053;-58
2022/03/23 06:24:30;;;;;;;40.85;27.77;;;;;;;6.10;66.34;102066.63;4166428;28;20045;-58
2022/03/23 06:26:33;;;;;;;47.20;30.10;;;;;;;6.14;66.21;102065.13;4166123;28;20188;-58
2022/03/23 06:28:37;;;;;;;40.55;29.52;;;;;;;6.15;66.06;102070.38;4166668;28;20038;-59
2022/03/23 06:30:42;;;;;;;45.17;31.02;;;;;;;6.17;66.36;102071.34;4159069;28;20068;-59
2022/03/23 06:32:45;;;;;;;36.67;27.55;;;;;;;6.21;66.34;102067.25;4158752;28;20045;-59
2022/03/23 06:34:48;;;;;;;41.88;30.48;;;;;;;6.18;66.68;102070.56;4159442;28;20048;-59
2022/03/23 06:36:50;;;;;;;39.00;29.00;;;;;;;6.28;66.50;102079.72;4159786;28;20045;-58
2022/03/23 06:38:53;;;;;;;36.88;28.73;;;;;;;6.31;66.74;102084.16;4154027;28;20046;-58
2022/03/23 06:40:56;;;;;;;41.78;31.17;;;;;;;6.35;66.81;102078.38;4159241;28;20041;-58
2022/03/23 06:42:59;;;;;;;37.70;28.35;;;;;;;6.40;66.62;102074.38;4160716;28;20049;-58
2022/03/23 06:45:03;;;;;;;40.03;29.80;;;;;;;6.44;66.50;102078.91;4163896;28;20037;-58
2022/03/23 06:47:06;;;;;;;40.05;29.67;;;;;;;6.49;66.45;102079.19;4138629;28;20036;-58
2022/03/23 06:49:10;;;;;;;43.30;30.45;;;;;;;6.57;66.16;102080.47;4153337;28;20052;-58
2022/03/23 06:51:14;;;;;;;37.90;27.63;;;;;;;6.64;66.27;102088.69;4166233;28;20128;-58
2022/03/23 06:53:18;;;;;;;41.55;28.90;;;;;;;6.66;65.88;102081.03;4161694;28;20045;-58
2022/03/23 06:55:23;;;;;;;;;;;;;;;6.55;66.95;102080.41;4158879;28;20072;-58
2022/03/23 06:57:29;;;;;;;36.95;28.42;;;;;;;6.67;66.23;102087.94;4164343;28;19924;-58
2022/03/23 06:59:32;;;;;;;39.92;28.85;;;;;;;6.74;66.21;102086.63;4143695;28;20072;-57
2022/03/23 07:01:36;;;;;;;42.22;30.08;;;;;;;6.81;65.98;102086.16;4162780;28;20049;-58
2022/03/23 07:03:39;;;;;;;45.28;30.48;;;;;;;6.85;66.44;102085.53;4151388;28;20046;-58
2022/03/23 07:05:42;;;;;;;48.85;31.83;;;;;;;6.94;66.16;102087.72;4163799;28;20054;-58
2022/03/23 07:10:02;;;;;;;41.40;30.15;;;;;;;7.02;64.59;102099.38;4164993;28;20046;-58
2022/03/23 07:12:07;;;;;;;39.03;28.85;;;;;;;7.10;63.83;102092.06;4136998;28;20037;-59
2022/03/23 07:14:10;;;;;;;42.35;29.52;;;;;;;7.16;63.98;102097.56;4160736;28;20518;-58
2022/03/23 07:16:13;;;;;;;39.92;26.38;;;;;;;7.22;63.65;102091.81;4163984;28;20046;-58
2022/03/23 07:18:17;;;;;;;38.08;27.05;;;;;;;7.28;62.79;102099.91;4165668;28;20048;-58
2022/03/23 07:20:20;;;;;;;37.65;27.70;;;;;;;7.32;62.65;102104.44;4146324;28;20057;-58
2022/03/23 07:22:23;;;;;;;35.83;26.08;;;;;;;7.37;61.50;102102.09;4143193;28;20062;-58
2022/03/23 07:24:27;;;;;;;34.33;25.63;;;;;;;7.42;60.46;102101.56;4163740;28;20041;-58
2022/03/23 07:26:29;;;;;;;34.92;24.98;;;;;;;7.47;60.40;102100.06;4133054;28;20479;-58
2022/03/23 07:28:32;;;;;;;38.28;26.33;;;;;;;7.59;59.83;102105.00;4148503;28;20411;-58
2022/03/23 07:30:40;;;;;;;33.20;24.17;;;;;;;7.60;60.66;102101.63;4155208;28;20071;-58
2022/03/23 07:32:42;;;;;;;;;;;;;;;7.53;60.32;102101.22;4156649;28;20053;-58
2022/03/23 07:34:47;;;;;;;33.33;22.98;;;;;;;7.66;59.79;102101.94;4158097;28;19928;-58
2022/03/23 07:36:50;;;;;;;34.90;23.20;;;;;;;7.81;59.38;102100.97;4158399;28;20049;-57
2022/03/23 07:38:53;;;;;;;31.42;23.10;;;;;;;7.83;58.30;102101.97;4154424;28;20495;-56
2022/03/23 07:40:56;;;;;;;33.22;24.88;;;;;;;7.88;57.49;102097.88;4147407;28;20455;-57
2022/03/23 07:42:59;;;;;;;31.20;23.70;;;;;;;7.92;57.78;102105.00;4164718;28;20033;-58
2022/03/23 07:45:03;;;;;;;31.33;22.73;;;;;;;7.93;57.47;102105.88;4157229;28;20072;-58
2022/03/23 07:47:10;;;;;;;36.65;24.02;;;;;;;7.89;56.85;102107.44;4165186;28;20785;-57
2022/03/23 07:49:13;;;;;;;33.45;22.63;;;;;;;7.94;56.07;102111.16;4159195;28;20515;-58
2022/03/23 07:51:17;;;;;;;32.67;24.38;;;;;;;8.07;56.05;102101.44;4165165;28;20118;-58
2022/03/23 07:53:20;;;;;;;30.70;21.42;;;;;;;8.17;55.74;102103.69;4164502;28;20517;-58
2022/03/23 07:55:23;;;;;;;30.58;21.67;;;;;;;8.23;55.87;102108.28;4138596;28;20144;-58
2022/03/23 07:57:26;;;;;;;32.70;23.48;;;;;;;8.32;55.42;102106.13;4161399;28;20049;-57
2022/03/23 07:59:30;;;;;;;40.03;25.30;;;;;;;8.43;55.13;102104.97;4159238;28;20049;-58
2022/03/23 08:01:33;;;;;;;32.20;23.85;;;;;;;8.48;55.18;102105.22;4162093;28;20103;-58
2022/03/23 08:03:36;;;;;;;33.88;24.63;;;;;;;8.56;54.72;102107.38;4158446;28;20042;-58
2022/03/23 08:05:39;;;;;;;30.23;22.25;;;;;;;8.61;53.85;102112.78;4162428;28;20475;-58
2022/03/23 08:07:43;;;;;;;35.75;22.20;;;;;;;8.55;53.81;102109.91;4153137;28;20117;-58
2022/03/23 08:09:46;;;;;;;34.88;24.02;;;;;;;8.63;53.34;102116.38;4148535;28;20045;-58
2022/03/23 08:11:49;;;;;;;37.40;25.73;;;;;;;8.78;53.06;102104.97;4146981;28;20535;-58
2022/03/23 08:13:52;;;;;;;34.60;22.85;;;;;;;8.84;52.55;102106.13;4149988;28;20061;-58
2022/03/23 08:15:55;;;;;;;32.75;24.92;;;;;;;8.90;52.44;102102.94;4162356;28;20423;-58
2022/03/23 08:17:58;;;;;;;37.45;25.38;;;;;;;9.08;52.00;102111.59;4146695;28;20041;-58
2022/03/23 08:22:36;;;;;;;32.60;22.20;;;;;;;9.24;52.34;102110.63;4097806;29;20473;-58
2022/03/23 08:24:40;;;;;;;38.63;22.90;;;;;;;9.36;52.30;102109.38;4097863;29;20047;-57
2022/03/23 08:26:42;;;;;;;38.42;22.75;;;;;;;9.42;51.66;102112.28;4087232;29;20055;-58
2022/03/23 08:28:47;;;;;;;31.27;22.63;;;;;;;9.39;51.56;102113.03;4160567;28;20064;-58
2022/03/23 08:30:49;;;;;;;35.15;25.05;;;;;;;9.33;51.34;102112.75;4154209;28;20041;-58
2022/03/23 08:32:53;;;;;;;34.35;23.77;;;;;;;9.36;51.44;102111.97;4147662;28;20436;-59
2022/03/23 08:34:55;;;;;;;36.15;24.55;;;;;;;9.37;51.49;102109.44;4155462;28;20107;-58
2022/03/23 08:36:59;;;;;;;38.03;26.17;;;;;;;9.54;50.99;102114.53;4162385;28;20041;-58
2022/03/23 08:39:04;;;;;;;40.03;26.60;;;;;;;9.79;50.01;102112.19;4159423;28;20040;-58
2022/03/23 08:41:12;;;;;;;35.55;26.42;;;;;;;9.95;49.57;102118.94;4164311;28;20061;-58
2022/03/23 08:43:14;;;;;;;;;;;;;;;9.82;49.38;102115.78;4163101;28;20056;-58
2022/03/23 08:45:18;;;;;;;36.10;22.25;;;;;;;9.89;49.69;102112.63;4160763;28;19921;-58
2022/03/23 08:47:21;;;;;;;38.67;24.27;;;;;;;9.99;49.10;102112.19;4159513;28;20054;-58
2022/03/23 08:49:24;;;;;;;33.40;22.83;;;;;;;10.09;49.21;102111.75;4161985;28;20072;-58
2022/03/23 08:51:27;;;;;;;36.53;23.40;;;;;;;10.19;49.54;102112.16;4161726;28;20416;-58
2022/03/23 08:53:30;;;;;;;31.67;23.27;;;;;;;10.30;49.55;102113.50;4140532;28;20080;-58
2022/03/23 08:55:33;;;;;;;28.00;21.55;;;;;;;10.36;48.85;102105.97;4158793;28;20041;-58
2022/03/23 08:57:37;;;;;;;32.10;24.23;;;;;;;10.39;48.27;102111.31;4158344;28;20096;-58
2022/03/23 08:59:40;;;;;;;35.08;24.73;;;;;;;10.46;48.49;102109.84;4156265;28;20042;-56
2022/03/23 09:01:43;;;;;;;33.60;23.80;;;;;;;10.58;47.91;102109.47;4163904;28;20403;-56
2022/03/23 09:03:46;;;;;;;29.73;22.17;;;;;;;10.67;47.35;102099.44;4142918;28;20053;-57
2022/03/23 09:05:49;;;;;;;33.70;23.17;;;;;;;10.72;47.04;102110.91;4163331;28;20128;-57
2022/03/23 09:07:52;;;;;;;37.35;23.55;;;;;;;10.87;47.13;102112.38;4140811;28;20050;-57
2022/03/23 09:09:55;;;;;;;33.83;23.83;;;;;;;11.02;47.12;102115.56;4162877;28;20051;-57
2022/03/23 09:11:57;;;;;;;31.90;22.35;;;;;;;11.11;48.01;102113.31;4161243;28;20045;-58
2022/03/23 09:14:02;;;;;;;31.55;22.45;;;;;;;11.17;47.11;102113.56;4163551;28;20049;-57
2022/03/23 09:16:05;;;;;;;28.13;21.58;;;;;;;11.30;47.23;102101.00;4157978;28;20053;-57
2022/03/23 09:18:08;;;;;;;35.38;23.55;;;;;;;11.43;46.35;102097.13;4163778;28;20495;-57
2022/03/23 09:20:12;;;;;;;30.05;24.17;;;;;;;11.57;46.06;102105.47;4159495;28;20037;-57
2022/03/23 09:22:15;;;;;;;32.10;22.80;;;;;;;11.64;44.99;102102.25;4152926;28;20050;-57
2022/03/23 09:24:19;;;;;;;31.15;23.13;;;;;;;11.56;45.39;102103.69;4159666;28;20072;-57
2022/03/23 09:26:22;;;;;;;32.85;24.30;;;;;;;11.81;44.40;102098.53;4160624;28;20133;-57
2022/03/23 09:28:24;;;;;;;32.78;22.80;;;;;;;11.78;45.35;102094.91;4156929;28;20038;-57
2022/03/23 09:30:29;;;;;;;29.48;20.80;;;;;;;11.78;44.44;102087.97;4162735;28;20438;-57
2022/03/23 09:32:32;;;;;;;28.05;21.27;;;;;;;11.87;44.54;102083.13;4145499;28;20518;-61
2022/03/23 09:34:35;;;;;;;29.17;23.27;;;;;;;11.96;42.41;102089.50;4134991;28;20042;-57
2022/03/23 09:38:57;;;;;;;59.92;26.25;;;;;;;12.23;42.05;102090.44;4160948;28;20033;-57
2022/03/23 09:41:00;;;;;;;57.30;25.38;;;;;;;12.31;41.47;102085.50;4153573;28;20045;-57
2022/03/23 09:43:05;;;;;;;50.95;24.67;;;;;;;12.30;40.57;102080.22;4156582;28;20546;-57
2022/03/23 09:45:08;;;;;;;58.63;25.80;;;;;;;12.39;41.11;102080.53;4160079;28;20399;-58
2022/03/23 09:47:12;;;;;;;50.95;25.83;;;;;;;12.48;41.12;102083.44;4165915;28;20442;-57